Tiempo atmosférico en la estación meteorológica de Bielsa, Huesca (990 m.)



Fecha
DESCASC
Temp. máxima en grados centígrados (hora)
DESCASC
Temp. mínima en grados centígrados (hora)
DESCASC
Temp. media en grados centígrados
DESCASC
Racha de viento máxima en m/sg (hora)
DESCASC
Velocidad máxima media en intervalos de 10 minutos(hora)
DESCASC
Precipitaciones diarias en mm
DESCASC
Precipitaciones de 00:00 a 06:00 en mm
DESCASC
Precipitaciones de 06:00 a 12:00 en mm
DESCASC
Precipitaciones de 12:00 a 18:00 en mm
DESCASC
Precipitaciones de 18:00 a 24:00 en mm
DESCASC
05-04-2020 17.5 (17:30) 1.6 (07:50) 9.6 9.72 (14:30) 4.72 (14:20) 0 0 0 0 0
04-04-2020 17.4 (16:40) -0.6 (08:20) 8.4 11.11 (14:20) 3.89 (15:30) 0 0 0 0 0
03-04-2020 16.6 (15:00) 2.6 (07:00) 9.6 9.17 (15:10) 5 (03:40) 0 0 0 0 0
02-04-2020 14.4 (15:20) 4.8 (00:00) 9.6 11.94 (16:00) 6.11 (16:00) 0.2 0.2 0 0 0
01-04-2020 10.4 (15:10) 4.6 (00:00) 7.5 7.78 (14:50) 3.06 (09:40) -- -- -- 0.8 2.2
31-03-2020 8 (16:20) 0.6 (00:00) 4.3 6.67 (10:20) 3.33 (10:20) -- 0 0 0 --
30-03-2020 8.4 (01:10) 0.8 (00:00) 4.6 9.72 (16:10) 3.61 (01:10) 2.2 1.2 0.6 0.2 0.2
29-03-2020 15.4 (16:10) 0.6 (00:00) 8 13.33 (14:00) 7.22 (12:50) 0 0 0 0 0
28-03-2020 15.1 (12:10) -0.3 (00:00) 7.4 8.06 (15:40) 3.06 (16:30) 0 0 0 0 0
27-03-2020 13.2 (17:00) -3.2 (-00:0) 5 8.89 (12:00) 3.33 (11:30) 0 0 0 0 0
26-03-2020 8.9 (14:20) -1.5 (-00:0) 3.7 10.56 (15:00) 4.72 (09:10) 0.2 0.2 0 0 0
25-03-2020 6 (10:30) 1 (00:00) 3.5 9.72 (12:20) 3.33 (13:10) 0.2 0 0 0 0.2
24-03-2020 16.2 (15:20) 3.2 (00:00) 9.7 8.33 (11:50) 3.06 (11:50) 1 0.4 0.4 0.2 0
23-03-2020 13.5 (13:40) 4.1 (00:00) 8.8 7.5 (13:50) 3.06 (13:50) 3 1 1 0.2 0.8
22-03-2020 15.1 (13:20) 2.6 (07:40) 8.9 8.61 (11:00) 4.17 (21:00) 3.8 0 0 0 3.8
21-03-2020 16.4 (15:40) 2.1 (00:00) 9.2 9.17 (15:20) 3.89 (14:10) 0 0 0 0 0
20-03-2020 15.8 (13:20) 5.8 (00:00) 10.8 9.72 (14:10) 3.89 (14:10) 0 0 0 0 0
19-03-2020 16.2 (16:00) 4.1 (00:00) 10.2 9.44 (12:40) 3.06 (12:50) 0 0 0 0 0
18-03-2020 16 (15:10) 3.8 (00:00) 9.9 8.89 (15:20) 3.06 (15:30) 0 0 0 0 0
17-03-2020 11.7 (14:50) 5.7 (00:00) 8.7 6.67 (00:10) 2.78 (00:10) 0.2 0 0.2 0 0
16-03-2020 7.8 (00:00) 2.3 (00:00) 5.1 -- (--) -- (--) -- -- -- 5.4 0.2
15-03-2020 16.9 (12:30) 4.2 (00:00) 10.5 11.67 (23:50) 5 (20:50) -- 0 0 0 --
14-03-2020 18.1 (14:50) 3.1 (00:00) 10.6 9.17 (14:50) 3.89 (12:50) 0 0 0 0 0
13-03-2020 12.2 (15:50) 8.2 (07:50) 10.2 9.44 (12:40) 3.61 (02:10) 2.6 1.6 0.6 0.4 0
12-03-2020 24.2 (14:50) 5.7 (00:00) 15 6.94 (11:50) 3.61 (12:20) 0.2 0 0 0 0.2
11-03-2020 24.1 (14:50) 4.1 (00:00) 14.1 8.89 (15:10) 3.89 (13:20) 0 0 0 0 0

Gráficas

Temp. máximas Temp. mínimas Temp. medias Precipitaciones Rachas de viento máximas Velocidades máximas media en intervalos de 10 minutos

Datos horarios

Fecha y hora oficial Temperatura (ºC) Velocidad del viento (km/h) Dirección del viento Racha (km/h) Dirección de racha Precipitación (mm) Presión (hPa) Tendencia (hPa) Humedad (%)
2020-04-09 23:00:00 10.7 0 Calma 3 Oeste 0 908.8 1.5 77
2020-04-09 22:00:00 11.3 2 Noroeste 15 Sudoeste 0 908.4 1.8 74
2020-04-09 21:00:00 12.4 3 Oeste 18 Sur 0 907.7 1.6 66
2020-04-09 20:00:00 14.2 5 Sudeste 28 Este 0 907.3 1.4 56
2020-04-09 19:00:00 15.4 8 Sudeste 30 Sudeste 0 906.6 0.5 51
2020-04-09 18:00:00 17.3 9 Sudeste 28 Este 0 906.1 -0.4 46
2020-04-09 17:00:00 18.1 7 Sudeste 27 Este 0 905.9 -0.9 41
2020-04-09 16:00:00 19.9 10 Sudeste 28 Sudeste 0 906.1 -1.3 40
2020-04-09 15:00:00 19.2 10 Sudeste 35 Sur 0 906.5 -1.4 42
2020-04-09 14:00:00 18.7 15 Sudeste 31 Sudeste 0 906.8 -1.3 45
2020-04-09 13:00:00 18.2 8 Sudeste 25 Sudeste 0 907.4 -0.9 46
2020-04-09 12:00:00 16 8 Sudeste 25 Sur 0 907.9 -0.6 52
2020-04-09 11:00:00 12 6 Sudeste 13 Sudeste 0 908.1 -0.2 63
2020-04-09 10:00:00 8.9 2 Este 6 Noroeste 0 908.3 0.2 84
2020-04-09 09:00:00 3.5 0 Calma 9 Noroeste 0 908.5 0.2 97
2020-04-09 08:00:00 3.4 4 Noroeste 14 Sudoeste 0 908.3 -0.2 97
2020-04-09 07:00:00 3.4 4 Noroeste 14 Sudoeste 0 908.1 -0.7 97
2020-04-09 06:00:00 3.8 2 Noroeste 10 Noroeste 0 908.3 -1 97
2020-04-09 05:00:00 4.1 0 Calma 9 Norte 0 908.5 -1.3 96
2020-04-09 04:00:00 4.6 4 Noroeste 10 Norte 0 908.8 -1.1 96
2020-04-09 03:00:00 5 2 Noroeste 13 Sudoeste 0 909.3 -0.9 96
2020-04-09 02:00:00 5.8 0 Calma 8 Noroeste 0 909.8 -0.3 94
2020-04-09 01:00:00 6.8 3 Noroeste 12 Noroeste 0 909.9 -0.2 92
2020-04-09 00:00:00 7 3 Noroeste 14 Sudoeste 0 910.2 0.8 93
2020-04-08 23:00:00 7.4 3 Noroeste 10 Noroeste 0 910.1 1.3 94
2020-04-08 22:00:00 7.9 2 Norte 6 Noroeste 0 910.1 1.3 91
2020-04-08 21:00:00 9.3 0 Calma 5 Noroeste 0 909.4 0.8 87
2020-04-08 20:00:00 12 0 Calma 15 Sudoeste 0 908.8 0.3 81
2020-04-08 19:00:00 12.8 3 Norte 15 Noroeste 0 908.8 0.3 74
2020-04-08 18:00:00 14 3 Sur 15 Este 0 908.6 -0.4 67
2020-04-08 17:00:00 15.5 6 Sudeste 23 Este 0 908.5 -0.8 60
2020-04-08 16:00:00 16.8 9 Sudeste 30 Este 0 908.5 -1.1 57
2020-04-08 15:00:00 15.3 7 Sudeste 28 Este 0 909 -1.1 59
2020-04-08 14:00:00 15 10 Sudeste 31 Sudeste 0 909.3 -1.2 59
2020-04-08 13:00:00 16.2 9 Sudeste 27 Sur 0 909.6 -1.2 57
2020-04-08 12:00:00 14.8 9 Sudeste 19 Sur 0 910.1 -0.9 62
2020-04-08 11:00:00 11 3 Sudeste 10 Norte 0 910.5 -0.5 77
2020-04-08 10:00:00 8.3 3 Noroeste 13 Sudoeste 0 910.8 0 86
2020-04-08 09:00:00 7.1 0 Calma 14 Norte 0 911 0.2 91
2020-04-08 08:00:00 6.5 6 Noroeste 15 Noroeste 0 911 -0.1 93
2020-04-08 07:00:00 7.1 4 Noroeste 10 Noroeste 0 910.8 -0.5 94
2020-04-08 06:00:00 7.4 0 Calma 6 Oeste 0 910.8 -1.1 96
2020-04-08 05:00:00 7.6 0 Calma 15 Norte 0 911.1 -1 96
2020-04-08 04:00:00 7.7 7 Norte 19 Norte 0 911.3 -0.9 95
2020-04-08 03:00:00 7.4 0 Calma 7 Norte 0 911.9 -0.1 97
2020-04-08 02:00:00 7.2 4 Norte 8 Norte 0 912.1 -0.1 97
2020-04-08 01:00:00 7.2 0 Calma 3 Este 0 912.2 0.3 96
2020-04-08 00:00:00 7.8 0 Calma 4 Norte 0 912 0.6 96
2020-04-07 23:00:00 7.9 0 Calma 6 Este 0 912.2 0.9 96
2020-04-07 22:00:00 8.1 3 Este 9 Sudeste 0 911.9 0.7 96
2020-04-07 21:00:00 8.4 2 Sudeste 5 Este 0 911.4 0.3 95
2020-04-07 20:00:00 8.5 2 Norte 5 Sur 0.2 911.3 0.1 95
2020-04-07 19:00:00 8.5 2 Norte 9 Este 1.2 911.2 0 94
2020-04-07 18:00:00 8.5 4 Sudeste 17 Sudeste 1 911.1 -0.3 92
2020-04-07 17:00:00 8.3 6 Sudeste 27 Sudeste 0 911.2 -0.2 91
2020-04-07 16:00:00 8.9 8 Sudeste 22 Sudeste 0.2 911.2 -0.1 88
2020-04-07 15:00:00 8.5 6 Sudeste 23 Sur 0.8 911.4 0 92
2020-04-07 14:00:00 9.5 7 Sudeste 19 Sur 0.2 911.4 0.2 89
2020-04-07 13:00:00 9.1 6 Sudeste 22 Sudeste 0.8 911.3 0.4 92
2020-04-07 12:00:00 9 8 Sudeste 20 Sudeste 0.4 911.4 0.9 90
2020-04-07 11:00:00 9.1 7 Sudeste 17 Sudeste 0 911.2 1.1 95
2020-04-07 10:00:00 8.8 4 Sudeste 8 Sudeste 0.2 910.9 1 96
2020-04-07 09:00:00 8.4 3 Este 8 Este 0.2 910.5 0.4 97
2020-04-07 08:00:00 8 0 Calma 13 Sudeste 0 910.1 -0.3 97
2020-04-07 07:00:00 8 0 Calma 5 Noroeste 0 909.9 -0.7 97
2020-04-07 06:00:00 8 0 Calma 13 Norte 0 910.1 -0.6 96
2020-04-07 05:00:00 7.9 0 Calma 4 Noroeste 0 910.4 -0.5 96
2020-04-07 04:00:00 7.9 0 Calma 5 Noroeste 0 910.6 -0.2 96
2020-04-07 03:00:00 8.1 2 Sudeste 9 Norte 0 910.7 0.1 96
2020-04-07 02:00:00 8.3 0 Calma 14 Norte 0.2 910.9 0.3 96
2020-04-07 01:00:00 8.2 4 Noroeste 8 Noroeste 0 910.8 0.3 96
2020-04-07 00:00:00 8.3 0 Calma 5 Noroeste 0 910.6 0.7 95
2020-04-06 23:00:00 8.7 2 Sudeste 4 Norte 0 910.6 1.2 95
2020-04-06 22:00:00 9.4 0 Calma 5 Norte 0 910.5 1.5 93
2020-04-06 21:00:00 10 0 Calma 4 Sudeste 0.2 909.9 1 91
2020-04-06 20:00:00 10.9 2 Sur 8 Sudeste 0 909.4 0.5 82
2020-04-06 19:00:00 11.6 3 Sudeste 12 Sudeste 0 909 -0.4 78
2020-04-06 18:00:00 11.3 0 Calma 14 Norte 0 908.9 -0.3 78
2020-04-06 17:00:00 10.6 7 Noroeste 12 Noroeste 0 908.9 0 82
2020-04-06 16:00:00 10.8 3 Sudeste 12 Sudeste 0.2 909.4 0.8 80
2020-04-06 15:00:00 10.6 5 Sudeste 22 Sur 0 909.2 0.7 74
2020-04-06 14:00:00 10.3 6 Sudeste 20 Sur 0 908.9 0.4 77
2020-04-06 13:00:00 10.8 4 Sudeste 9 Sudeste 0 908.6 0.3 81
2020-04-06 12:00:00 10.5 2 Noroeste 14 Noroeste 0 908.5 0.6 77
2020-04-06 11:00:00 8.5 10 Norte 17 Norte 0.2 908.5 1.6 86
2020-04-06 10:00:00 7.7 3 Noroeste 9 Noroeste 0.4 908.3 1.7 89
2020-04-06 09:00:00 7.2 0 Calma 6 Norte 0 907.9 1.7 86
2020-04-06 08:00:00 6.8 3 Norte 11 Noroeste 0 906.9 0.7 81
2020-04-06 07:00:00 6.4 0 Calma 3 Oeste 0 906.6 0.1 83
2020-04-06 06:00:00 6.4 3 Noroeste 9 Noroeste 0 906.2 -0.4 81
2020-04-06 05:00:00 6.5 0 Calma 9 Noroeste 0 906.2 -0.5 79
2020-04-06 04:00:00 6.7 2 Noroeste 10 Noroeste 0 906.5 -0.1 78
2020-04-06 03:00:00 6.7 3 Noroeste 9 Noroeste 0 906.6 0.2 75
2020-04-06 02:00:00 6.6 2 Norte 9 Noroeste 0 906.7 0.6 76
2020-04-06 01:00:00 6.6 3 Noroeste 12 Noroeste 0 906.6 1 77
2020-04-06 00:00:00 7.1 4 Norte 11 Norte 0 906.4 1.8 73
2020-04-05 23:00:00 7.1 2 Noroeste 8 Norte 0 906.1 1.8 75
2020-04-05 22:00:00 8.6 3 Noroeste 6 Noroeste 0 905.6 1.7 69
2020-04-05 21:00:00 10.8 4 Sur 18 Este 0 904.6 0.7 55
2020-04-05 20:00:00 12.4 8 Sudeste 27 Sudeste 0 904.3 0.3 43
2020-04-05 19:00:00 13.7 6 Sudeste 21 Sudeste 0 903.9 -0.5 39
2020-04-05 18:00:00 16.4 10 Sudeste 26 Sur 0 903.9 -0.8 30
2020-04-05 17:00:00 16.8 11 Sudeste 28 Sudeste 0 904 -0.7 32
2020-04-05 16:00:00 16.8 10 Sudeste 29 Sudeste 0 904.4 -0.7 35
2020-04-05 15:00:00 16.6 10 Sudeste 35 Sudeste 0 904.7 -0.9 39
2020-04-05 14:00:00 16 13 Sudeste 34 Este 0 904.7 -1.6 40
2020-04-05 13:00:00 15.4 9 Sudeste 23 Este 0 905.1 -1.2 42
2020-04-05 12:00:00 12.9 8 Sudeste 27 Sur 0 905.6 -1 48
2020-04-05 11:00:00 9.4 5 Sudeste 17 Este 0 906.3 0.2 60
2020-04-05 10:00:00 5.7 0 Calma 6 Este 0 906.3 0.7 77
2020-04-05 09:00:00 1.9 3 Norte 14 Sudoeste 0 906.6 0.9 95
2020-04-05 08:00:00 1.7 4 Noroeste 17 Norte 0 906.1 0.2 95
2020-04-05 07:00:00 1.8 4 Noroeste 12 Norte 0 905.6 -0.6 95
2020-04-05 06:00:00 2.4 3 Noroeste 6 Oeste 0 905.7 -0.7 93
2020-04-05 05:00:00 3.4 3 Oeste 6 Noroeste 0 905.9 -1 92
2020-04-05 04:00:00 4.5 3 Noroeste 5 Noroeste 0 906.2 -0.4 91
2020-04-05 03:00:00 5.4 3 Noroeste 8 Noroeste 0 906.4 0.1 87
2020-04-05 02:00:00 5.7 3 Noroeste 10 Norte 0 906.9 0.7 89
2020-04-05 01:00:00 4.7 3 Noroeste 12 Noroeste 0 906.6 0.8 91
2020-04-05 00:00:00 5.5 2 Noroeste 5 Norte 0 906.3 1.3 88
2020-04-04 23:00:00 6.5 3 Noroeste 6 Noroeste 0 906.2 2 83
2020-04-04 22:00:00 8.1 4 Noroeste 18 Nordeste 0 905.8 2.5 77
2020-04-04 21:00:00 11 3 Sur 28 Sudeste 0 905 2 63
2020-04-04 20:00:00 12.5 10 Sudeste 31 Sur 0 904.2 1.1 55
2020-04-04 19:00:00 13.9 10 Sudeste 30 Este 0 903.3 -0.1 52
2020-04-04 18:00:00 16.6 8 Sudeste 34 Sur 0 903 -0.8 45
2020-04-04 17:00:00 17.2 11 Sudeste 33 Sudeste 0 903.1 -0.9 45
2020-04-04 16:00:00 17.1 12 Sudeste 37 Sudeste 0 903.4 -1.2 43
2020-04-04 15:00:00 16.9 13 Sudeste 40 Sur 0 903.8 -1.2 45
2020-04-04 14:00:00 16.2 9 Sudeste 35 Este 0 904 -1.2 46
2020-04-04 13:00:00 14.8 9 Sudeste 33 Sur 0 904.6 -0.7 49
2020-04-04 12:00:00 13 8 Sudeste 24 Sur 0 905 -0.4 47
2020-04-04 11:00:00 8.3 5 Sudeste 12 Este 0 905.2 0.5 57
2020-04-04 10:00:00 4.2 2 Noroeste 6 Noroeste 0 905.3 0.6 72
2020-04-04 09:00:00 -0.5 0 Calma 14 Sudoeste 0 905.4 0.9 94
2020-04-04 08:00:00 -0.4 2 Noroeste 15 Sudoeste 0 904.7 -0.2 94
2020-04-04 07:00:00 -0.2 3 Oeste 14 Sudoeste 0 904.7 -0.1 94
2020-04-04 06:00:00 0.3 5 Noroeste 14 Sudoeste 0 904.5 -0.4 94
2020-04-04 05:00:00 0.7 3 Oeste 14 Norte 0 904.9 0.1 93
2020-04-04 04:00:00 1 4 Noroeste 12 Norte 0 904.8 0.3 93
2020-04-04 03:00:00 1.3 3 Noroeste 9 Noroeste 0 904.9 0.8 93
2020-04-04 02:00:00 1.7 2 Sudoeste 15 Sudoeste 0 904.8 1.2 91
2020-04-04 01:00:00 2.4 4 Oeste 13 Sudoeste 0 904.5 1.4 89
2020-04-04 00:00:00 3.1 3 Noroeste 8 Noroeste 0 904.1 1.7 87
2020-04-03 23:00:00 4.1 3 Noroeste 13 Sudoeste 0 903.6 2 85
2020-04-03 22:00:00 5.6 4 Noroeste 12 Noroeste 0 903.1 2.1 79
2020-04-03 21:00:00 6.7 3 Noroeste 8 Noroeste 0 902.4 1.9 79
2020-04-03 20:00:00 8.7 3 Noroeste 9 Sur 0 901.6 1.4 72
2020-04-03 19:00:00 11.5 6 Sur 19 Este 0 901 0.7 59
2020-04-03 18:00:00 14.2 10 Sur 24 Sur 0 900.5 0 47
2020-04-03 17:00:00 15.7 10 Sudeste 30 Sudeste 0 900.2 -0.7 45
2020-04-03 16:00:00 16.1 12 Sudeste 33 Sudeste 0 900.3 -1 40
2020-04-03 15:00:00 16.3 10 Sudeste 27 Sur 0 900.5 -0.9 34
2020-04-03 14:00:00 15.4 10 Sudeste 25 Sur 0 900.9 -0.4 36
2020-04-03 13:00:00 14.1 10 Sudeste 24 Sur 0 901.3 0 33
2020-04-03 12:00:00 12.1 13 Noroeste 31 Noroeste 0 901.4 0.2 33
2020-04-03 11:00:00 9.9 16 Noroeste 30 Noroeste 0 901.3 0.6 38
2020-04-03 10:00:00 8.5 16 Noroeste 30 Noroeste 0 901.3 0.9 45
2020-04-03 09:00:00 2.8 3 Sur 29 Norte 0 901.2 1 72
2020-04-03 08:00:00 3.5 13 Norte 27 Norte 0 900.7 0.7 65
2020-04-03 07:00:00 2.7 10 Noroeste 25 Norte 0 900.4 0.2 71
2020-04-03 06:00:00 3.1 7 Noroeste 29 Norte 0 900.2 0 69
2020-04-03 05:00:00 3.8 14 Norte 30 Norte 0 900 -0.6 67
2020-04-03 04:00:00 4.2 12 Norte 30 Noroeste 0 900.2 -0.4 66
2020-04-03 03:00:00 4.8 14 Norte 29 Norte 0 900.2 -0.4 63
2020-04-03 02:00:00 4.9 9 Norte 27 Norte 0 900.6 0 64
2020-04-03 01:00:00 5.1 9 Noroeste 28 Norte 0 900.6 0.4 64
2020-04-03 00:00:00 5.8 10 Norte 23 Norte 0 900.6 1 60
2020-04-02 23:00:00 6.3 9 Norte 22 Norte 0 900.6 1.5 62
2020-04-02 22:00:00 7.5 9 Norte 23 Noroeste 0 900.2 1.8 55
2020-04-02 21:00:00 8.5 9 Noroeste 24 Noroeste 0 899.6 1.9 51
2020-04-02 20:00:00 9.3 6 Noroeste 28 Noroeste 0 899.1 1.3 54
2020-04-02 19:00:00 10.7 13 Noroeste 32 Noroeste 0 898.4 1 51
2020-04-02 18:00:00 12.1 10 Noroeste 23 Noroeste 0 897.7 0.2 47
2020-04-02 17:00:00 11.8 12 Noroeste 37 Noroeste 0 897.8 -0.1 52
2020-04-02 16:00:00 13.2 22 Noroeste 43 Noroeste 0 897.4 -0.7 49
2020-04-02 15:00:00 12.7 7 Oeste 22 Sudeste 0 897.5 -0.5 50
2020-04-02 14:00:00 10.8 7 Sudeste 20 Sur 0 897.9 0.4 69
2020-04-02 13:00:00 10.6 6 Sudeste 27 Este 0 898.1 0.6 72
2020-04-02 12:00:00 9.4 8 Sudeste 24 Sur 0 898 0.6 74
2020-04-02 11:00:00 8.1 5 Sudeste 14 Sur 0 897.5 0.5 79
2020-04-02 10:00:00 6.5 3 Noroeste 6 Noroeste 0 897.5 0.6 83
2020-04-02 09:00:00 5.5 0 Calma 14 Nordeste 0 897.4 0.3 95
2020-04-02 08:00:00 4.9 0 Calma 5 Noroeste 0 897 -0.3 96
2020-04-02 07:00:00 4.9 0 Calma 4 Noroeste 0 896.9 -1 96
2020-04-02 06:00:00 4.9 0 Calma 5 Este 0 897.1 -1.2 96
2020-04-02 05:00:00 5 0 Calma 4 Nordeste 0 897.3 -1.2 95
2020-04-02 04:00:00 5.1 0 Calma 10 Sur 0 897.9 -0.8 93
2020-04-02 03:00:00 5.3 5 Sur 18 Sudeste 0 898.3 -0.7 94
2020-04-02 02:00:00 5.8 4 Sudeste 17 Sur 0 898.5 -0.6 95
2020-04-02 01:00:00 6 2 Sudeste 11 Este 0.2 898.7 -0.2 95
2020-04-02 00:00:00 6.2 3 Sudeste 9 Este 0.2 899 0.6 95
2020-04-01 23:00:00 6.4 3 Sudeste 10 Sudeste 0 899.1 1 94
2020-04-01 22:00:00 6.5 3 Sudeste 9 Sudeste 0 898.9 0.6 94
2020-04-01 21:00:00 6.7 4 Este 10 Este 0 898.4 0.2 94
2020-04-01 20:00:00 7.2 2 Este 7 Sudeste 0.6 898.1 -0.4 93
2020-04-01 19:00:00 7.5 4 Este 12 Este 1.4 898.3 -0.4 91
2020-04-01 18:00:00 8.3 5 Sudeste 16 Este 0.6 898.2 -0.7 87
2020-04-01 17:00:00 8.6 6 Sudeste 24 Sur 0.2 898.5 -0.6 83
2020-04-01 16:00:00 9.4 9 Sudeste 28 Este 0 898.7 -0.8 76
2020-04-01 15:00:00 10.2 9 Sudeste 28 Sur 0 898.9 -0.9 74
2020-04-01 14:00:00 10 5 Sudeste 22 Sudeste 0 899.1 -1.1 72
2020-04-01 13:00:00 10.3 7 Sudeste 18 Sudeste 0 899.5 -0.5 75
2020-04-01 12:00:00 9.8 4 Oeste 9 Noroeste 0 899.8 -0.4 73
2020-04-01 11:00:00 8.1 3 Sudeste -- -- -- 900.2 0.1 85
2020-04-01 10:00:00 7.2 7 Noroeste 20 Noroeste -- 900 -0.2 85
2020-04-01 09:00:00 5.3 7 Norte 17 Norte -- 900.2 -0.2 94
2020-04-01 08:00:00 4.8 4 Norte 10 Noroeste -- 900.1 -0.4 97
2020-04-01 07:00:00 4.6 2 Oeste 5 Sur -- 900.2 -0.6 97
2020-04-01 06:00:00 4.8 4 Sudeste 8 Norte -- 900.4 -0.7 97
2020-04-01 05:00:00 4.8 0 Calma 13 Sudoeste -- 900.5 -0.6 96
2020-04-01 04:00:00 4.8 2 Sudeste 14 Sudoeste -- 900.8 -0.5 96
2020-04-01 03:00:00 4.9 2 Noroeste 5 Noroeste -- 901.1 -0.2 97
2020-04-01 02:00:00 5 0 Calma 3 Este -- 901.1 -0.1 96
2020-04-01 01:00:00 5.1 0 Calma 4 Noroeste -- 901.3 0.5 96
2020-04-01 00:00:00 5.3 0 Calma 5 Este -- 901.3 1 96
2020-03-31 23:00:00 5.4 3 Este 7 Este -- 901.2 1.5 96
2020-03-31 22:00:00 5.6 3 Este 7 Este -- 900.8 1.5 95
2020-03-31 21:00:00 5.9 3 Sudeste 16 Sudeste -- 900.3 1.3 94
2020-03-31 20:00:00 6.3 4 Este 18 Sudeste 0.2 899.7 0.8 93
2020-03-31 19:00:00 7 4 Sudeste 13 Este 0 899.3 0 92
2020-03-31 18:00:00 7.7 4 Sudeste 15 Sudeste 0 899 -0.4 87
2020-03-31 17:00:00 7.8 2 Este 9 Sudeste 0 898.9 -0.4 84
2020-03-31 16:00:00 7.8 5 Sudeste 12 Sudeste 0 899.3 0.3 85
2020-03-31 15:00:00 7.6 2 Este 17 Sudeste 0 899.4 0.3 84
2020-03-31 14:00:00 7.1 6 Sudeste 16 Sudeste 0 899.3 0.1 84
2020-03-31 13:00:00 7.4 0 Calma 9 Noroeste 0 899 0 80
2020-03-31 12:00:00 5.1 5 Noroeste 17 Noroeste 0 899.1 -0.1 89
2020-03-31 11:00:00 3.5 6 Noroeste 24 Norte 0 899.2 0.6 92
2020-03-31 10:00:00 2.2 9 Norte 19 Norte 0 899 1.1 97
2020-03-31 09:00:00 1.5 2 Noroeste 5 Norte 0 899.2 1.3 97
2020-03-31 08:00:00 1.2 2 Oeste 15 Sudoeste 0 898.6 0.5 97
2020-03-31 07:00:00 1.3 3 Sudeste 15 Norte 0 897.9 -0.6 97
2020-03-31 06:00:00 0.9 0 Calma 15 Sudoeste 0 897.9 -1 97
2020-03-31 05:00:00 0.8 0 Calma 4 Oeste 0 898.1 -1.1 97
2020-03-31 04:00:00 0.6 0 Calma 14 Nordeste 0 898.5 -0.8 97
2020-03-31 03:00:00 0.6 0 Calma 3 Sudeste 0 898.9 -0.7 97
2020-03-31 02:00:00 0.7 0 Calma 4 Sudeste 0 899.2 -0.5 96
2020-03-31 01:00:00 0.8 0 Calma 3 Oeste 0 899.3 -0.6 95
2020-03-31 00:00:00 0.9 0 Calma 3 Este 0 899.6 0.4 94
2020-03-30 23:00:00 0.9 0 Calma 8 Sudeste 0.2 899.7 1 93
2020-03-30 22:00:00 1.4 4 Sudeste 22 Este 0 899.9 1.7 88
2020-03-30 21:00:00 2.3 6 Sudeste 21 Este 0 899.2 1.1 83
2020-03-30 20:00:00 3.5 7 Sudeste 21 Sur 0 898.7 0.9 74
2020-03-30 19:00:00 4.3 6 Sudeste 23 Sur 0 898.2 0.1 71
2020-03-30 18:00:00 5.1 10 Sudeste 30 Sudeste 0 898.1 -0.3 70
2020-03-30 17:00:00 5.8 11 Sudeste 35 Sudeste 0 897.8 -0.6 65
2020-03-30 16:00:00 5.9 7 Sudeste 26 Sudeste 0 898.1 -0.7 68
2020-03-30 15:00:00 5.5 7 Sudeste 27 Sur 0.2 898.4 -0.3 72
2020-03-30 14:00:00 4.9 10 Sudeste 27 Sudeste 0 898.4 0.1 77
2020-03-30 13:00:00 4.2 8 Sudeste 28 Este 0 898.8 1 81
2020-03-30 12:00:00 3.8 11 Sudeste 30 Sur 0.2 898.7 1.3 84
2020-03-30 11:00:00 3.2 9 Sudeste 27 Sur 0 898.3 0.9 89
2020-03-30 10:00:00 2.7 6 Sur 21 Sur 0.2 897.8 0.3 94
2020-03-30 09:00:00 1.7 0 Calma 12 Sudeste 0 897.4 -0.5 97
2020-03-30 08:00:00 1.5 3 Sudeste 9 Norte 0.2 897.4 -0.6 97
2020-03-30 07:00:00 1.1 0 Calma 9 Este 0 897.5 -0.7 95
2020-03-30 06:00:00 2.1 3 Sudeste 23 Noroeste 0.2 897.9 -0.9 89
2020-03-30 05:00:00 3 5 Noroeste 18 Noroeste 0.2 898 -0.9 94
2020-03-30 04:00:00 4.8 0 Calma 13 Este 0.6 898.2 -1.1 91
2020-03-30 03:00:00 6.5 0 Calma 14 Noroeste 0.2 898.8 -1 79
2020-03-30 02:00:00 8 10 Noroeste 26 Noroeste 0 898.9 -1.7 56
2020-03-30 01:00:00 8.2 12 Noroeste 25 Noroeste 0 899.3 -1.8 54
2020-03-30 00:00:00 8.3 6 Norte 20 Norte 0 899.8 -1.5 53
2020-03-29 23:00:00 8.8 10 Noroeste 26 Noroeste 0 900.6 -0.5 51
2020-03-29 22:00:00 8.7 13 Noroeste 33 Noroeste 0 901.1 0.5 53
2020-03-29 21:00:00 8.5 18 Noroeste 34 Noroeste 0 901.3 1.2 56
2020-03-29 20:00:00 8.9 19 Noroeste 41 Noroeste 0 901.1 1.5 56
2020-03-29 19:00:00 10 22 Noroeste 46 Noroeste 0 900.6 0.6 50
2020-03-29 18:00:00 11.6 21 Noroeste 42 Noroeste 0 900.1 -0.5 43
2020-03-29 17:00:00 14.3 21 Noroeste 45 Noroeste 0 899.6 -1.6 33
2020-03-29 16:00:00 15 20 Noroeste 45 Noroeste 0 900 -1.5 30
2020-03-29 15:00:00 15 19 Noroeste 46 Noroeste 0 900.6 -1.4 31
2020-03-29 14:00:00 14.3 23 Noroeste 48 Norte 0 901.2 -1.1 31
2020-03-29 13:00:00 13.5 25 Noroeste 44 Noroeste 0 901.5 -0.9 31
2020-03-29 12:00:00 13.2 20 Noroeste 42 Noroeste 0 902 -0.6 32
2020-03-29 11:00:00 11.8 18 Noroeste 40 Noroeste 0 902.3 -0.5 35
2020-03-29 10:00:00 9.2 11 Noroeste 28 Noroeste 0 902.4 -0.5 47
2020-03-29 09:00:00 2.7 9 Norte 21 Noroeste 0 902.6 -0.4 76
2020-03-29 08:00:00 0.7 0 Calma 13 Norte 0 902.8 -0.7 88
2020-03-29 07:00:00 1 4 Noroeste 9 Noroeste 0 902.9 -1.1 87
2020-03-29 06:00:00 0.9 2 Este 14 Noroeste 0 903 -1.4 86
2020-03-29 05:00:00 1.7 4 Noroeste 15 Noroeste 0 903.5 -1 85
2020-03-29 03:00:00 2.9 4 Oeste 19 Norte 0 904.4 -0.2 80
2020-03-29 01:00:00 4.4 5 Noroeste 17 Noroeste 0 904.5 -0.1 74
2020-03-29 00:00:00 5.8 6 Noroeste 20 Noroeste 0 904.6 0.4 67
2020-03-28 23:00:00 6.2 8 Noroeste 17 Noroeste 0 904.6 1 68
2020-03-28 22:00:00 5.7 2 Norte 11 Oeste 0 904.6 1.6 78
2020-03-28 21:00:00 7.6 5 Noroeste 13 Noroeste 0 904.2 1.9 71
2020-03-28 20:00:00 9.3 0 Calma 4 Noroeste 0 903.6 1.6 72
2020-03-28 19:00:00 10.4 0 Calma 12 Sudeste 0 903 1 66
2020-03-28 18:00:00 11.9 5 Sudeste 15 Sur 0 902.3 0.3 50
2020-03-28 17:00:00 12.7 7 Sudeste 28 Sudeste 0 902 -0.2 46
2020-03-28 16:00:00 14.6 9 Sudeste 29 Sudeste 0 902 -0.2 43
2020-03-28 15:00:00 14.2 7 Sudeste 21 Sur 0 902 -0.5 41
2020-03-28 14:00:00 13.6 9 Sudeste 28 Sudeste 0 902.2 -0.7 42
2020-03-28 13:00:00 13.4 8 Sudeste 25 Sur 0 902.2 -0.8 42
2020-03-28 12:00:00 14.4 10 Sudeste 24 Sur 0 902.5 -0.6 36
2020-03-28 11:00:00 9.5 3 Sudeste 11 Este 0 902.9 -0.3 50
2020-03-28 10:00:00 7.7 4 Sudeste 9 Este 0 903 0.2 55
2020-03-28 09:00:00 3.6 3 Nordeste 5 Nordeste 0 903.1 0.6 76
2020-03-28 08:00:00 -0.1 0 Calma 15 Noroeste 0 903.2 0.8 89
2020-03-28 07:00:00 -0.3 4 Noroeste 10 Noroeste 0 902.8 0.4 91
2020-03-28 06:00:00 0.1 0 Calma 12 Sudoeste 0 902.5 -0.1 89
2020-03-28 05:00:00 1.3 0 Calma 16 Norte 0 902.4 -0.4 83
2020-03-28 04:00:00 1.8 3 Noroeste 13 Noroeste 0 902.4 0 82
2020-03-28 03:00:00 1.7 3 Oeste 13 Norte 0 902.6 0.3 82
2020-03-28 02:00:00 0.6 3 Noroeste 15 Oeste 0 902.8 1 87
2020-03-28 01:00:00 0.7 3 Noroeste 14 Norte 0 902.4 1 86
2020-03-28 00:00:00 1 2 Noroeste 5 Noroeste 0 902.3 1.6 85
2020-03-27 23:00:00 1.9 3 Noroeste 11 Noroeste 0 901.8 1.9 79
2020-03-27 22:00:00 2.4 0 Calma 4 Norte 0 901.4 2.3 81
2020-03-27 21:00:00 3.4 2 Norte 4 Norte 0 900.7 2.5 78
2020-03-27 20:00:00 5.2 0 Calma 4 Oeste 0 899.9 2.2 70
2020-03-27 19:00:00 7.8 2 Noroeste 20 Sur 0 899.1 1.5 59
2020-03-27 18:00:00 10.1 6 Sudeste 22 Sudeste 0 898.2 0.6 39
2020-03-27 17:00:00 12.3 8 Sudeste 24 Sudeste 0 897.7 -0.2 35
2020-03-27 16:00:00 12.8 10 Sudeste 32 Sur 0 897.6 -0.6 34
2020-03-27 15:00:00 13 9 Sudeste 30 Sudeste 0 897.6 -1 32
2020-03-27 14:00:00 12.2 12 Sudeste 28 Sur 0 897.9 -0.8 29
2020-03-27 13:00:00 10.9 10 Sudeste 32 Sur 0 898.2 -0.7 32
2020-03-27 12:00:00 9.8 10 Sudeste 32 Sur 0 898.6 -0.4 31
2020-03-27 11:00:00 8.3 9 Sudeste 23 Sur 0 898.7 -0.3 32
2020-03-27 10:00:00 3 4 Sudeste 10 Sudeste 0 898.9 0.1 43
2020-03-27 09:00:00 0 0 Calma 5 Noroeste 0 899 0.5 64
2020-03-27 08:00:00 -2.8 0 Calma 13 Sudoeste 0 899 0.7 80
2020-03-27 07:00:00 -2.8 5 Noroeste 22 Noroeste 0 898.8 0.5 82
2020-03-27 06:00:00 -3.2 3 Noroeste 13 Nordeste 0 898.5 0.2 86
2020-03-27 05:00:00 -2.5 3 Noroeste 15 Norte 0 898.3 -0.4 84
2020-03-27 04:00:00 -2.1 4 Norte 12 Norte 0 898.3 -0.2 84
2020-03-27 03:00:00 -1.2 5 Noroeste 17 Norte 0 898.3 -0.1 81
2020-03-27 02:00:00 -1.7 4 Noroeste 14 Nordeste 0 898.7 0.5 89
2020-03-27 01:00:00 -1.3 0 Calma 5 Noroeste 0 898.5 0.6 88
2020-03-27 00:00:00 -1.5 0 Calma 13 Sudoeste 0 898.4 0.9 89
2020-03-26 23:00:00 -1.4 0 Calma 14 Oeste 0 898.2 1.8 85
2020-03-26 22:00:00 -0.5 0 Calma 14 Sudoeste 0 897.9 2.2 77
2020-03-26 21:00:00 0.9 0 Calma 18 Noroeste 0 897.5 2.2 67
2020-03-26 20:00:00 2.3 10 Noroeste 18 Noroeste 0 896.4 2.1 58
2020-03-26 19:00:00 3.8 8 Noroeste 27 Noroeste 0 895.7 1.9 48
2020-03-26 18:00:00 5 16 Noroeste 35 Noroeste 0 895.3 1.8 42
2020-03-26 17:00:00 6.8 10 Noroeste 31 Noroeste 0 894.3 0.5 29
2020-03-26 16:00:00 8.6 10 Noroeste 38 Noroeste 0 893.8 -0.4 27
2020-03-26 15:00:00 8.2 16 Noroeste 38 Norte 0 893.5 -0.7 28
2020-03-26 14:00:00 7.6 13 Noroeste 35 Noroeste 0 893.8 -0.3 27
2020-03-26 13:00:00 7 7 Oeste 25 Norte 0 894.2 0.6 35
2020-03-26 12:00:00 5.8 7 Oeste 33 Noroeste 0 894.2 0.8 33
2020-03-26 11:00:00 4.7 12 Oeste 30 Noroeste 0 894.1 0.8 34
2020-03-26 10:00:00 4.9 14 Noroeste 37 Noroeste 0 893.6 0.3 36
2020-03-26 09:00:00 3.7 16 Noroeste 35 Norte 0 893.4 -0.1 45
2020-03-26 08:00:00 2.6 11 Noroeste 22 Norte 0 893.3 -0.9 74
2020-03-26 07:00:00 0.7 3 Este 12 Este 0 893.3 -1.7 96
2020-03-26 06:00:00 0.6 4 Sudeste 9 Norte 0 893.5 -2.2 95
2020-03-26 05:00:00 0.6 2 Oeste 15 Sudeste 0.2 894.2 -2.3 94
2020-03-26 04:00:00 0.6 3 Norte 9 Noroeste 0 895 -2.3 93
2020-03-26 03:00:00 1 4 Oeste 10 Noroeste 0 895.7 -2.2 94
2020-03-26 02:00:00 1.3 0 Calma 15 Sudoeste 0 896.5 -1.8 95
2020-03-26 01:00:00 1.4 4 Noroeste 9 Noroeste 0 897.3 -1.5 96
2020-03-26 00:00:00 1 3 Noroeste 15 Sudeste 0 897.9 -1.1 97
2020-03-25 23:00:00 1.4 0 Calma 14 Nordeste 0.2 898.3 -0.7 96
2020-03-25 22:00:00 1.8 3 Sur 8 Noroeste 0 898.8 -0.1 94
2020-03-25 21:00:00 2.2 2 Norte 14 Nordeste 0 899 0 94
2020-03-25 20:00:00 2.2 2 Noroeste 14 Sudeste 0 899 -0.2 92
2020-03-25 19:00:00 3 5 Sudeste 18 Este 0 898.9 -1 84
2020-03-25 18:00:00 3.5 7 Sudeste 22 Sudeste 0 899 -1.1 80
2020-03-25 17:00:00 3.7 6 Sudeste 26 Sudeste 0 899.2 -1.5 83
2020-03-25 16:00:00 4 8 Sudeste 31 Sudeste 0 899.9 -0.8 79
2020-03-25 15:00:00 3.7 8 Sudeste 24 Sudeste 0 900.1 -0.8 79
2020-03-25 14:00:00 3.1 10 Sudeste 34 Este 0 900.7 -0.5 83
2020-03-25 13:00:00 3.9 10 Sudeste 35 Este 0 900.7 -0.7 81
2020-03-25 12:00:00 4.5 9 Sudeste 28 Este 0 900.9 -0.5 78
2020-03-25 11:00:00 5.2 8 Sudeste 29 Sur 0 901.2 -0.2 76
2020-03-25 10:00:00 5.1 9 Sudeste 21 Sudeste 0 901.4 0 76
2020-03-25 09:00:00 3.5 7 Sudeste 23 Sur 0 901.4 0 85
2020-03-25 08:00:00 3 6 Sur 15 Sur 0 901.4 0.3 89
2020-03-25 07:00:00 3.2 4 Sudeste 15 Sudeste 0 901.4 0 90
2020-03-25 06:00:00 3.6 5 Sudeste 17 Sur 0 901.4 -0.5 90
2020-03-25 05:00:00 4 4 Sudeste 18 Sur 0 901.1 -1.3 88
2020-03-25 04:00:00 4.8 4 Sudeste 11 Sur 0 901.4 -1.3 90
2020-03-25 03:00:00 4.9 3 Sur 13 Sur 0 901.9 -1 89
2020-03-25 02:00:00 5.1 5 Sur 14 Sur 0 902.4 -0.6 90
2020-03-25 01:00:00 5.5 4 Sudeste 14 Sur 0 902.7 -0.3 89
2020-03-25 00:00:00 5.9 4 Sur 18 Sur 0 902.9 0 85
2020-03-24 23:00:00 6 6 Sur 18 Sur 0 903 0.5 85
2020-03-24 22:00:00 5.4 3 Noroeste 14 Nordeste 0 903 1 87
2020-03-24 21:00:00 5.9 3 Noroeste 8 Noroeste 0 902.9 1.4 87
2020-03-24 20:00:00 6.8 2 Noroeste 14 Sudeste 0 902.5 1.3 84
2020-03-24 19:00:00 9.4 5 Sudeste 19 Este 0 902 0.7 71
2020-03-24 18:00:00 11 9 Sudeste 22 Sur 0 901.5 -0.5 65
2020-03-24 17:00:00 12.8 7 Sudeste 21 Sur 0 901.2 -1.2 59
2020-03-24 16:00:00 15.2 11 Sudeste 25 Sur 0 901.3 -1.9 50
2020-03-24 15:00:00 15.4 7 Sudoeste 29 Noroeste 0 902 -1.7 32
2020-03-24 14:00:00 15.1 7 Este 23 Sur 0.2 902.4 -1.9 50
2020-03-24 13:00:00 14.4 9 Sudeste 27 Sur 0 903.2 -1.5 56
2020-03-24 12:00:00 13 10 Sudeste 30 Sur 0 903.7 -1.6 60
2020-03-24 11:00:00 11.5 8 Sur 17 Sur 0 904.3 -1.3 64
2020-03-24 10:00:00 8 3 Sudeste 7 Sudeste 0.2 904.7 -0.7 81
2020-03-24 09:00:00 5.2 0 Calma 9 Noroeste 0 905.3 0.1 94
2020-03-24 08:00:00 4.5 0 Calma 11 Noroeste 0 905.6 0.7 95
2020-03-24 07:00:00 4.2 5 Noroeste 15 Noroeste 0.2 905.4 0.2 95
2020-03-24 06:00:00 3.5 6 Noroeste 10 Noroeste 0 905.2 -0.4 97
2020-03-24 05:00:00 3.8 0 Calma 9 Noroeste 0.2 904.9 -0.9 96
2020-03-24 04:00:00 4.5 0 Calma 10 Norte 0 905.2 -0.6 96
2020-03-24 03:00:00 4.8 0 Calma 18 Norte 0 905.6 -0.3 95
2020-03-24 02:00:00 4.4 5 Noroeste 14 Norte 0.2 905.8 -0.4 96
2020-03-24 01:00:00 4.6 4 Noroeste 8 Noroeste 0 905.8 -0.1 96
2020-03-24 00:00:00 5.8 3 Noroeste 8 Noroeste 0.2 905.9 0.2 96
2020-03-23 23:00:00 6.4 0 Calma 5 Noroeste 0 906.2 0.8 95
2020-03-23 22:00:00 7.2 0 Calma 3 Noroeste 0.2 905.9 1 95
2020-03-23 21:00:00 7.5 0 Calma 3 Oeste 0 905.7 1.7 94
2020-03-23 20:00:00 8 0 Calma 3 Oeste 0.2 905.4 1.8 92
2020-03-23 19:00:00 8.7 0 Calma 24 Este 0.2 904.9 1.5 91
2020-03-23 18:00:00 10 7 Sudeste 18 Sur 0 904 0.3 77
2020-03-23 17:00:00 10.6 6 Sudeste 23 Sur 0 903.6 -0.2 72
2020-03-23 16:00:00 11.8 8 Sudeste 24 Sur 0 903.4 -0.8 63
2020-03-23 15:00:00 12.2 9 Sudeste 24 Sur 0.2 903.7 -0.7 66
2020-03-23 14:00:00 12.2 7 Sudeste 27 Sur 0 903.8 -0.6 60
2020-03-23 13:00:00 12.5 9 Sudeste 23 Sur 0 904.2 -0.2 63
2020-03-23 12:00:00 12.4 9 Sudeste 24 Sudeste 0.2 904.4 0.3 61
2020-03-23 11:00:00 10.4 6 Sudeste 14 Este 0 904.4 0.7 73
2020-03-23 10:00:00 7.5 5 Este 9 Sudeste 0.4 904.4 1.1 92
2020-03-23 09:00:00 6.1 3 Sudeste 6 Este 0 904.1 1.2 96
2020-03-23 08:00:00 4.8 3 Sudeste 6 Este 0.2 903.7 1 97
2020-03-23 07:00:00 4.3 0 Calma 3 Noroeste 0.2 903.3 0.7 96
2020-03-23 06:00:00 5.1 0 Calma 14 Sudoeste 0 902.9 0.2 96
2020-03-23 05:00:00 5.3 0 Calma 4 Noroeste 0.2 902.7 -0.2 96
2020-03-23 04:00:00 5.4 0 Calma 3 Sudeste 0.2 902.6 -0.3 96
2020-03-23 03:00:00 5.6 0 Calma 5 Noroeste 0.2 902.7 -0.2 96
2020-03-23 02:00:00 5.6 2 Oeste 5 Noroeste 0.4 902.9 0.1 96
2020-03-23 01:00:00 5.6 0 Calma 15 Sudoeste 0 902.9 0.4 95
2020-03-23 00:00:00 5.5 0 Calma 4 Noroeste 0 902.9 0.9 95
2020-03-22 23:00:00 5.6 0 Calma 15 Norte 0.2 902.8 1.6 93
2020-03-22 22:00:00 5.5 10 Norte 23 Noroeste 0.6 902.5 2.1 89
2020-03-22 21:00:00 5.8 15 Noroeste 22 Noroeste 1.6 902 2.6 88
2020-03-22 20:00:00 7.3 6 Noroeste 13 Noroeste 0.6 901.2 2.6 87
2020-03-22 19:00:00 8.5 0 Calma 21 Noroeste 0.8 900.4 2 84
2020-03-22 18:00:00 9.7 9 Noroeste 21 Oeste 0 899.4 0.8 74
2020-03-22 17:00:00 12.3 8 Sudeste 28 Sur 0 898.6 -0.2 52
2020-03-22 16:00:00 12.8 8 Sudeste 27 Sur 0 898.4 -0.4 52
2020-03-22 15:00:00 13.6 8 Sudeste 31 Sur 0 898.6 -0.2 47
2020-03-22 14:00:00 12.7 12 Sudeste 28 Sur 0 898.8 -0.1 48
2020-03-22 13:00:00 14.6 11 Sudeste 31 Este 0 898.8 0 43
2020-03-22 12:00:00 13.7 10 Sudeste 31 Este 0 898.8 0 46
2020-03-22 11:00:00 12.2 12 Este 31 Este 0 898.9 0.2 50
2020-03-22 10:00:00 8 5 Este 13 Este 0 898.8 0.3 72
2020-03-22 09:00:00 4.7 0 Calma 5 Este 0 898.8 0.5 90
2020-03-22 08:00:00 2.7 3 Noroeste 7 Noroeste 0 898.7 0.5 93
2020-03-22 07:00:00 3.1 2 Norte 11 Noroeste 0 898.5 0.1 91
2020-03-22 06:00:00 4 4 Noroeste 14 Noroeste 0 898.3 -0.7 87
2020-03-22 05:00:00 5.7 3 Norte 6 Noroeste 0 898.2 -0.6 83
2020-03-22 04:00:00 5.9 2 Oeste 14 Norte 0 898.4 -0.6 82
2020-03-22 03:00:00 5.8 6 Noroeste 14 Noroeste 0 899 -0.2 80
2020-03-22 02:00:00 5.8 5 Noroeste 16 Norte 0 898.8 -0.7 81
2020-03-22 01:00:00 6.2 5 Noroeste 14 Norte 0 899 -0.6 82
2020-03-22 00:00:00 7.5 0 Calma 10 Norte 0 899.2 0 77
2020-03-21 23:00:00 7.6 4 Noroeste 14 Norte 0 899.5 1 77
2020-03-21 22:00:00 7.9 4 Noroeste 17 Norte 0 899.6 2 75
2020-03-21 21:00:00 7.7 5 Noroeste 16 Este 0 899.2 2.2 73
2020-03-21 20:00:00 9.2 5 Sur 28 Sur 0 898.5 1.6 62
2020-03-21 19:00:00 10.7 8 Sudeste 30 Sudeste 0 897.6 0.5 56
2020-03-21 18:00:00 11.7 4 Sur 21 Este 0 897 -0.5 56
2020-03-21 17:00:00 13.1 7 Sudeste 28 Sudeste 0 896.9 -1.2 48
2020-03-21 16:00:00 15.8 9 Sudeste 33 Sudeste 0 897.1 -2.1 40
2020-03-21 15:00:00 16.1 9 Sudeste 31 Sur 0 897.5 -2.7 39
2020-03-21 14:00:00 15 12 Sudeste 31 Sur 0 898.1 -2.8 42
2020-03-21 13:00:00 13.9 10 Sudeste 27 Sudeste 0 899.2 -1.9 44
2020-03-21 12:00:00 11.5 6 Sudeste 17 Sur 0 900.2 -0.9 55
2020-03-21 11:00:00 9.4 4 Sudeste 9 Sur 0 900.9 0 61
2020-03-21 10:00:00 6.7 0 Calma 8 Noroeste 0 901.1 0.1 73
2020-03-21 09:00:00 5.7 3 Noroeste 7 Oeste 0 901.1 -0.5 78
2020-03-21 08:00:00 5.2 4 Oeste 9 Oeste 0 900.9 -1.1 81
2020-03-21 07:00:00 4.9 5 Noroeste 14 Norte 0 901 -0.8 85
2020-03-21 06:00:00 4.3 5 Noroeste 15 Norte 0 901.6 -0.5 88
2020-03-21 05:00:00 3.3 2 Noroeste 13 Norte 0 902 -0.5 95
2020-03-21 04:00:00 2.1 0 Calma 15 Norte 0 901.8 -1.3 95
2020-03-21 03:00:00 2.8 0 Calma 5 Noroeste 0 902.1 -1.3 94
2020-03-21 02:00:00 3.6 0 Calma 4 Noroeste 0 902.5 -1.2 91
2020-03-21 01:00:00 4.7 0 Calma 11 Norte 0 903.1 -0.9 88
2020-03-21 00:00:00 5.8 5 Norte 9 Norte 0 903.4 -0.7 88
2020-03-20 23:00:00 6.8 0 Calma 8 Noroeste 0 903.7 -0.1 84
2020-03-20 22:00:00 7.1 5 Noroeste 11 Norte 0 904 0.6 81
2020-03-20 21:00:00 6.7 5 Noroeste 18 Norte 0 904.1 1.1 83
2020-03-20 20:00:00 7.3 3 Noroeste 6 Noroeste 0 903.8 0.9 80
2020-03-20 19:00:00 9.5 3 Oeste 28 Este 0 903.4 0.6 68
2020-03-20 18:00:00 11.3 9 Sudeste 30 Este 0 903 0 58
2020-03-20 17:00:00 12.6 9 Sudeste 29 Sur 0 902.9 -0.4 53
2020-03-20 16:00:00 14.2 11 Sur 31 Sudeste 0 902.8 -1 49
2020-03-20 15:00:00 15.3 12 Sudeste 35 Sur 0 903 -1.7 47
2020-03-20 14:00:00 15.5 13 Sudeste 28 Sur 0 903.3 -2 47
2020-03-20 13:00:00 15.1 8 Sudeste 24 Sur 0 903.8 -1.4 47
2020-03-20 12:00:00 12.8 9 Sudeste 24 Sur 0 904.7 -0.5 56
2020-03-20 11:00:00 11.7 7 Sudeste 24 Sudeste 0 905.3 0.2 61
2020-03-20 10:00:00 9.4 6 Sudeste 16 Sur 0 905.2 0.3 69
2020-03-20 09:00:00 8.3 4 Este 8 Este 0 905.2 0.3 79
2020-03-20 08:00:00 7.2 0 Calma 4 Este 0 905.1 0.1 91
2020-03-20 07:00:00 7 0 Calma 4 Noroeste 0 904.9 -0.2 90
2020-03-20 06:00:00 7 0 Calma 3 Norte 0 904.9 -0.5 90
2020-03-20 05:00:00 7 2 Norte 8 Oeste 0 905 -0.9 89
2020-03-20 04:00:00 6.6 2 Noroeste 6 Noroeste 0 905.1 -1 95
2020-03-20 03:00:00 6.9 0 Calma 3 Noroeste 0 905.4 -1 94
2020-03-20 02:00:00 7.3 0 Calma 5 Noroeste 0 905.9 -0.8 94
2020-03-20 01:00:00 7 2 Noroeste 4 Noroeste 0 906.1 -0.7 95
2020-03-20 00:00:00 6.8 2 Noroeste 4 Norte 0 906.4 -0.2 94
2020-03-19 23:00:00 7.4 0 Calma 3 Norte 0 906.7 0.2 92
2020-03-19 22:00:00 7.6 0 Calma 14 Norte 0 906.8 0.8 90
2020-03-19 21:00:00 8.8 2 Noroeste 9 Noroeste 0 906.6 0.8 85
2020-03-19 20:00:00 10.1 2 Noroeste 22 Sudeste 0 906.5 0.7 80
2020-03-19 19:00:00 12.1 7 Sudeste 22 Este 0 906 -0.1 66
2020-03-19 18:00:00 13.7 7 Sudeste 18 Este 0 905.8 -0.8 56
2020-03-19 17:00:00 14.8 8 Sur 20 Sur 0 905.8 -1.4 57
2020-03-19 16:00:00 16.2 6 Sur 21 Sudeste 0 906.1 -1.7 53
2020-03-19 15:00:00 15.4 8 Sur 22 Sudeste 0 906.6 -1.8 55
2020-03-19 14:00:00 14.1 9 Sudeste 22 Sudeste 0 907.2 -1.6 64
2020-03-19 13:00:00 15 10 Sudeste 34 Sudeste 0 907.8 -1.3 60
2020-03-19 12:00:00 14.1 9 Sudeste 23 Sur 0 908.4 -0.8 62
2020-03-19 11:00:00 12.6 6 Este 14 Este 0 908.8 -0.6 63
2020-03-19 10:00:00 9.1 3 Este 13 Sudeste 0 909.1 -0.4 78
2020-03-19 09:00:00 6.6 3 Noroeste 14 Nordeste 0 909.2 -0.2 91
2020-03-19 08:00:00 5 5 Noroeste 12 Norte 0 909.4 0 95
2020-03-19 07:00:00 4.1 0 Calma 7 Norte 0 909.5 0 95
2020-03-19 06:00:00 4.9 3 Noroeste 10 Noroeste 0 909.4 -0.7 94
2020-03-19 05:00:00 5.5 2 Norte 9 Noroeste 0 909.4 -1.2 91
2020-03-19 04:00:00 6.6 5 Noroeste 10 Noroeste 0 909.5 -1.4 86
2020-03-19 03:00:00 7.3 3 Noroeste 13 Noroeste 0 910.1 -1.1 85
2020-03-19 02:00:00 7.7 7 Noroeste 11 Noroeste 0 910.6 -0.9 85
2020-03-19 01:00:00 7.4 4 Noroeste 6 Noroeste 0 910.9 -0.5 95
2020-03-19 00:00:00 6.9 0 Calma 7 Noroeste 0 911.2 -0.1 96
2020-03-18 23:00:00 6.1 3 Noroeste 6 Oeste 0 911.5 0.3 96
2020-03-18 22:00:00 6.7 2 Norte 5 Noroeste 0 911.4 0.6 94
2020-03-18 21:00:00 7.7 3 Noroeste 7 Noroeste 0 911.3 0.9 93
2020-03-18 20:00:00 8.7 3 Noroeste 6 Noroeste 0 911.2 1 91
2020-03-18 19:00:00 11 0 Calma 10 Este 0 910.8 0.3 83
2020-03-18 18:00:00 12.9 6 Sudeste 21 Sudeste 0 910.4 -0.2 70
2020-03-18 17:00:00 13.6 8 Sudeste 26 Sudeste 0 910.2 -1 67
2020-03-18 16:00:00 14.5 9 Sudeste 32 Sudeste 0 910.5 -1.4 63
2020-03-18 15:00:00 15.9 10 Sudeste 30 Sudeste 0 910.6 -2 56
2020-03-18 14:00:00 15.3 9 Sudeste 29 Sur 0 911.2 -1.8 58
2020-03-18 13:00:00 14.5 8 Sudeste 20 Sudeste 0 911.9 -1.4 59
2020-03-18 12:00:00 13 5 Sudeste 13 Este 0 912.6 -0.8 64
2020-03-18 11:00:00 11.2 3 Este 15 Este 0 913 -0.4 75
2020-03-18 10:00:00 8.7 5 Noroeste 12 Norte 0 913.3 0 87
2020-03-18 09:00:00 6.5 6 Noroeste 14 Norte 0 913.4 0 95
2020-03-18 08:00:00 4.5 4 Noroeste 14 Oeste 0 913.4 0 97
2020-03-18 07:00:00 3.8 0 Calma 5 Oeste 0 913.3 -0.3 97
2020-03-18 06:00:00 4 0 Calma 5 Noroeste 0 913.4 -0.5 97
2020-03-18 05:00:00 4.3 0 Calma 9 Noroeste 0 913.4 -0.8 96
2020-03-18 04:00:00 4.5 4 Oeste 8 Noroeste 0 913.6 -1 96
2020-03-18 03:00:00 4.7 2 Noroeste 16 Este 0 913.9 -1.1 96
2020-03-18 02:00:00 5.2 3 Noroeste 13 Noroeste 0 914.2 -1 96
2020-03-18 01:00:00 5.2 0 Calma 7 Norte 0 914.6 -0.5 95
2020-03-18 00:00:00 5.8 4 Noroeste 9 Noroeste 0 915 0.2 95
2020-03-17 23:00:00 6.5 0 Calma 10 Noroeste 0 915.2 1 93
2020-03-17 22:00:00 7.6 6 Norte 18 Norte 0 915.1 1.3 93
2020-03-17 21:00:00 8 2 Noroeste 7 Noroeste 0 914.8 1.1 93
2020-03-17 20:00:00 8.8 4 Noroeste 6 Noroeste 0 914.2 0.4 94
2020-03-17 19:00:00 10.3 0 Calma 13 Norte 0 913.8 0.1 89
2020-03-17 18:00:00 10.9 6 Norte 15 Norte 0 913.7 0.1 85
2020-03-17 17:00:00 11.2 0 Calma 8 Este 0 913.8 0.1 80
2020-03-17 16:00:00 11.2 3 Sudeste 7 Sudeste 0 913.7 -0.1 84
2020-03-17 15:00:00 11.6 0 Calma 5 Sur 0 913.6 -0.1 79
2020-03-17 14:00:00 11 0 Calma 6 Norte 0 913.7 0.3 82
2020-03-17 13:00:00 10 4 Norte 11 Norte 0 913.8 1 88
2020-03-17 12:00:00 9.7 4 Noroeste 8 Norte 0 913.7 1.3 87
2020-03-17 11:00:00 8.5 3 Este 9 Noroeste 0 913.4 1.8 95
2020-03-17 10:00:00 7.7 2 Noroeste 8 Norte 0 912.8 1.8 96
2020-03-17 09:00:00 7.1 0 Calma 4 Este 0.2 912.4 2.1 96
2020-03-17 08:00:00 6.7 0 Calma 4 Sudeste 0 911.6 2 95
2020-03-17 07:00:00 6.6 3 Noroeste 13 Norte 0 911 1.7 94
2020-03-17 06:00:00 6.6 0 Calma 19 Noroeste 0 910.3 0.9 92
2020-03-17 05:00:00 6.9 8 Norte 19 Norte 0 909.6 0.5 91
2020-03-17 04:00:00 6.2 3 Noroeste 10 Noroeste 0 909.3 0.3 95
2020-03-17 03:00:00 6.3 0 Calma 19 Noroeste 0 909.4 0.4 93
2020-03-17 02:00:00 6.8 5 Norte 17 Norte 0 909.1 0.5 90
2020-03-17 01:00:00 6.7 6 Noroeste 24 Norte 0 909 1.1 90
2020-03-17 00:00:00 6.6 6 Norte 19 Norte 0 909 2 91
2020-03-16 23:00:00 6.3 5 Norte 17 Noroeste 0 908.6 2.3 92
2020-03-16 22:00:00 6.4 4 Noroeste 19 Noroeste 0 907.9 2.3 90
2020-03-16 21:00:00 6.4 6 Norte 14 Norte 0 907 2.2 92
2020-03-16 20:00:00 6.5 9 Noroeste 18 Noroeste 0 906.3 1.9 91
2020-03-16 19:00:00 6.6 8 Noroeste 21 Norte 0.2 905.6 1.5 91
2020-03-16 18:00:00 6.3 11 Norte 26 Noroeste 0.6 904.8 1 90
2020-03-16 17:00:00 5.9 10 Norte 24 Norte 0.6 904.4 0.6 92
2020-03-16 16:00:00 5.7 11 Norte 32 Norte 1 904.1 0.6 90
2020-03-16 15:00:00 5.4 10 Noroeste 27 Noroeste 1 903.8 0.7 90
2020-03-16 14:00:00 5.2 11 Noroeste 24 Noroeste 1 903.8 1.4 91
2020-03-16 13:00:00 5.2 8 Norte 15 Noroeste 1.2 903.5 1.8 91
2020-03-16 12:00:00 4.9 2 Sudeste 8 Noroeste -- 903.1 1.9 91
2020-03-16 11:00:00 4.1 0 Calma 4 Sur -- 902.4 1.6 93
2020-03-16 10:00:00 3.4 2 Este 18 Norte -- 901.7 1.5 95
2020-03-16 09:00:00 2.7 3 Noroeste 15 Norte -- 901.2 1.4 95
2020-03-16 08:00:00 2.4 6 Norte 12 Norte -- 900.8 1.4 95
2020-03-16 07:00:00 2.8 8 Norte 17 Norte -- 900.2 1.1 93
2020-03-16 06:00:00 3.3 9 Norte -- -- -- 899.8 0.2 93
2020-03-16 05:00:00 3.7 -- -- -- -- -- 899.4 -0.3 93
2020-03-16 04:00:00 3.7 10 Norte 28 Norte -- 899.1 -0.7 92
2020-03-16 03:00:00 4.1 12 Norte 31 Noroeste -- 899.6 -0.4 92
2020-03-16 02:00:00 5.7 12 Norte 24 Noroeste -- 899.7 0.8 91
2020-03-16 01:00:00 7 2 Sur 22 Este -- 899.8 0.5 93
2020-03-16 00:00:00 7.8 8 Sudeste 42 Este -- 900 0.7 88
2020-03-15 23:00:00 9 13 Sudeste 37 Este -- 898.9 -0.4 89
2020-03-15 22:00:00 9.2 6 Sudeste 33 Este -- 899.3 -0.2 90
2020-03-15 21:00:00 10.2 10 Sudeste 37 Este -- 899.3 0.2 84
2020-03-15 20:00:00 10.3 7 Sudeste 26 Este -- 899.3 -0.4 83
2020-03-15 19:00:00 10.6 5 Sur 35 Este -- 899.5 -0.8 84
2020-03-15 18:00:00 12.9 9 Sudeste 22 Este -- 899.1 -1.4 63
2020-03-15 17:00:00 14 4 Sudeste 17 Este 0 899.7 -1.6 47
2020-03-15 16:00:00 14.2 9 Este 26 Sudeste 0 900.3 -2 51
2020-03-15 15:00:00 15.4 7 Sudeste 24 Sur 0 900.5 -2.7 48
2020-03-15 14:00:00 15.9 8 Sudeste 22 Sur 0 901.3 -2.3 39
2020-03-15 13:00:00 15.9 13 Sudeste 26 Sur 0 902.3 -2 38
2020-03-15 12:00:00 15.5 10 Sudeste 28 Sudeste 0 903.2 -1.3 46
2020-03-15 11:00:00 12.3 8 Sudeste 19 Sudeste 0 903.6 -0.9 57
2020-03-15 10:00:00 8.4 5 Sudeste 9 Este 0 904.3 -0.2 73
2020-03-15 09:00:00 5.2 2 Este 15 Este 0 904.5 -0.1 89
2020-03-15 08:00:00 4.6 0 Calma 8 Oeste 0 904.5 -0.2 89
2020-03-15 07:00:00 5.6 4 Noroeste 9 Oeste 0 904.5 -0.6 84
2020-03-15 06:00:00 6.4 0 Calma 3 Norte 0 904.6 -1 88
2020-03-15 05:00:00 6.8 2 Oeste 15 Nordeste 0 904.7 -1.2 86
2020-03-15 04:00:00 6.5 2 Noroeste 7 Oeste 0 905.1 -1 89
2020-03-15 03:00:00 6 3 Oeste 8 Noroeste 0 905.6 -0.4 90
2020-03-15 02:00:00 5.6 2 Noroeste 12 Noroeste 0 905.9 -0.2 93
2020-03-15 01:00:00 4.3 3 Noroeste 7 Noroeste 0 906.1 0 95
2020-03-15 00:00:00 4.8 0 Calma 8 Noroeste 0 906 0 94
2020-03-14 23:00:00 5.6 3 Noroeste 15 Norte 0 906.1 0.5 92
2020-03-14 22:00:00 6.4 2 Norte 13 Norte 0 906.1 1.4 90
2020-03-14 21:00:00 7.5 2 Noroeste 9 Noroeste 0 906 1.9 88
2020-03-14 20:00:00 8.6 4 Noroeste 14 Norte 0 905.6 1.8 83
2020-03-14 19:00:00 10.5 4 Noroeste 24 Sur 0 904.7 1.1 79
2020-03-14 18:00:00 12.7 4 Sur 22 Sudeste 0 904.1 0.3 68
2020-03-14 17:00:00 14.2 7 Sudeste 26 Sudeste 0 903.8 -0.5 61
2020-03-14 16:00:00 17.2 9 Sudeste 31 Sudeste 0 903.6 -1.2 51
2020-03-14 15:00:00 17.4 13 Sudeste 33 Sur 0 903.8 -1.4 48
2020-03-14 14:00:00 17.7 11 Sudeste 31 Sur 0 904.3 -1.4 46
2020-03-14 13:00:00 16.3 11 Sudeste 33 Sur 0 904.8 -1 51
2020-03-14 12:00:00 15 10 Sudeste 25 Sur 0 905.2 -0.8 56
2020-03-14 11:00:00 12 9 Este 19 Este 0 905.7 0.1 63
2020-03-14 10:00:00 7.7 3 Noroeste 6 Noroeste 0 905.8 0.7 70
2020-03-14 09:00:00 4 0 Calma 7 Noroeste 0 906 1.2 94
2020-03-14 08:00:00 3.4 2 Noroeste 12 Noroeste 0 905.6 0.9 92
2020-03-14 07:00:00 4.4 2 Noroeste 12 Noroeste 0 905.1 0.6 90
2020-03-14 06:00:00 6 4 Noroeste 13 Noroeste 0 904.8 -0.2 85
2020-03-14 05:00:00 7 4 Noroeste 14 Noroeste 0 904.7 -0.8 84
2020-03-14 04:00:00 7.6 4 Noroeste 14 Noroeste 0 904.5 -1 87
2020-03-14 03:00:00 7.5 6 Noroeste 14 Noroeste 0 905 -0.4 89
2020-03-14 02:00:00 7.2 3 Noroeste 8 Noroeste 0 905.5 -0.2 95
2020-03-14 01:00:00 8.2 3 Noroeste 5 Noroeste 0 905.5 0.1 93
2020-03-14 00:00:00 9.4 0 Calma 5 Noroeste 0 905.4 0.1 93
2020-03-13 23:00:00 10 0 Calma 4 Sudeste 0 905.7 0.7 92
2020-03-13 22:00:00 10 3 Sudeste 12 Sur 0 905.4 0.7 92
2020-03-13 21:00:00 10.4 5 Sudeste 11 Sudeste 0 905.3 0.8 90
2020-03-13 20:00:00 10.7 4 Sudeste 14 Sur 0 905 0.3 88
2020-03-13 19:00:00 11.1 3 Este 7 Este 0 904.7 -0.2 86
2020-03-13 18:00:00 11.5 3 Este 14 Sudeste 0 904.5 -0.8 83
2020-03-13 17:00:00 11.7 5 Sudeste 14 Sur 0 904.7 -1.1 82
2020-03-13 16:00:00 12.1 5 Sudeste 13 Sudeste 0.2 904.9 -1.4 80
2020-03-13 15:00:00 11.4 6 Sudeste 21 Sudeste 0 905.3 -0.8 83
2020-03-13 14:00:00 10.7 9 Sudeste 28 Sur 0 905.8 -0.5 84
2020-03-13 13:00:00 10.6 7 Sudeste 34 Sur 0.2 906.3 0.4 86
2020-03-13 12:00:00 12 10 Sudeste 25 Sudeste 0 906.1 0 87
2020-03-13 11:00:00 11.2 9 Sudeste 20 Sudeste 0 906.3 0.9 89
2020-03-13 10:00:00 10.3 8 Norte 15 Norte 0.2 905.9 0.4 94
2020-03-13 09:00:00 9.2 2 Sudeste 6 Oeste 0.2 906.1 0.7 96
2020-03-13 08:00:00 8.3 4 Noroeste 12 Noroeste 0 905.4 0.2 95
2020-03-13 07:00:00 8.8 2 Noroeste 12 Norte 0.2 905.5 0.1 96
2020-03-13 06:00:00 9 3 Noroeste 14 Este 0 905.4 -0.6 96
2020-03-13 05:00:00 9.6 2 Sur 13 Norte 0.2 905.2 -1.2 94
2020-03-13 04:00:00 10 5 Norte 18 Nordeste 0 905.4 -2 93
2020-03-13 03:00:00 10.4 7 Noroeste 31 Norte 0.4 906 -1.1 94
2020-03-13 02:00:00 10.7 10 Norte 24 Norte 0.2 906.4 0.4 94
2020-03-13 01:00:00 10.8 4 Noroeste 26 Norte 0.8 907.4 1.2 92
2020-03-13 00:00:00 10.9 4 Sudeste 12 Norte 0.2 907.1 1.2 84
2020-03-12 23:00:00 11.2 2 Este 10 Norte 0 906 0.5 69
2020-03-12 22:00:00 10.9 3 Noroeste 9 Norte 0 906.2 1.1 73
2020-03-12 21:00:00 11.6 4 Noroeste 9 Noroeste 0 905.9 1 68
2020-03-12 20:00:00 12.3 3 Noroeste 13 Norte 0 905.5 0.4 68
2020-03-12 19:00:00 14.2 3 Noroeste 8 Noroeste 0 905.1 -0.3 61
2020-03-12 18:00:00 16.5 3 Noroeste 10 Sudeste 0 904.9 -0.8 54
2020-03-12 17:00:00 19.4 6 Sur 19 Sudeste 0 905.1 -1.3 40
2020-03-12 16:00:00 21.7 8 Sudeste 23 Sur 0 905.4 -1.9 31
2020-03-12 15:00:00 23.5 8 Sudeste 24 Sudeste 0 905.7 -2.1 26
2020-03-12 14:00:00 23.3 9 Sudeste 22 Sudeste 0 906.4 -1.8 25
2020-03-12 13:00:00 21.9 10 Sudeste 25 Sur 0 907.3 -1.1 27
2020-03-12 12:00:00 21.1 10 Sudeste 25 Sudeste 0 907.8 -1.3 28
2020-03-12 11:00:00 17.3 4 Sudeste 12 Sudeste 0 908.2 -0.7 42
2020-03-12 10:00:00 12.9 2 Este 10 Noroeste 0 908.4 -0.3 55
2020-03-12 09:00:00 7.4 5 Noroeste 14 Noroeste 0 909.1 0.7 73
2020-03-12 08:00:00 6 3 Noroeste 17 Noroeste 0 908.9 0.4 78
2020-03-12 07:00:00 5.9 5 Noroeste 15 Noroeste 0 908.7 -0.3 76
2020-03-12 06:00:00 6.2 4 Noroeste 12 Norte 0 908.4 -1.1 76
2020-03-12 05:00:00 6.4 4 Noroeste 17 Norte 0 908.5 -1.2 76
2020-03-12 04:00:00 7.3 5 Oeste 14 Norte 0 909 -1 73
2020-03-12 03:00:00 7.5 4 Noroeste 11 Norte 0 909.5 -0.9 74
2020-03-12 02:00:00 8.6 5 Noroeste 13 Norte 0 909.7 -0.4 68
2020-03-12 01:00:00 8.3 4 Noroeste 12 Noroeste 0 910 0 72
2020-03-12 00:00:00 8.4 5 Noroeste 12 Noroeste 0 910.4 0.5 72
2020-03-11 23:00:00 8.5 4 Oeste 14 Noroeste 0 910.1 0.5 71
2020-03-11 22:00:00 8.6 4 Noroeste 10 Noroeste 0 910 1.1 73
2020-03-11 21:00:00 9.4 3 Noroeste 13 Noroeste 0 909.9 1.8 71
2020-03-11 20:00:00 11.2 3 Noroeste 12 Noroeste 0 909.6 1.9 64
2020-03-11 19:00:00 13.5 8 Noroeste 14 Noroeste 0 908.9 1.3 55
2020-03-11 18:00:00 14.8 3 Noroeste 17 Sur 0 908.1 0.3 53
2020-03-11 17:00:00 18.2 5 Sur 23 Sur 0 907.7 -0.5 37
2020-03-11 16:00:00 23 8 Sudeste 32 Sur 0 907.6 -1.4 21
2020-03-11 15:00:00 23.6 11 Sudeste 31 Sudeste 0 907.8 -1.6 19
2020-03-11 14:00:00 23.1 13 Sur 29 Sur 0 908.2 -1.5 19
2020-03-11 13:00:00 22.7 10 Sudeste 27 Sudeste 0 909 -1 20
2020-03-11 12:00:00 20.7 8 Sudeste 18 Sudeste 0 909.4 -0.7 20
2020-03-11 11:00:00 17.6 3 Sudeste 14 Este 0 909.7 -0.3 27
2020-03-11 10:00:00 11.6 4 Norte 14 Nordeste 0 910 0.3 49
2020-03-11 09:00:00 4.9 2 Este 14 Nordeste 0 910.1 0.8 71
2020-03-11 08:00:00 4.8 8 Noroeste 17 Norte 0 910 0.5 61
2020-03-11 07:00:00 5.1 5 Noroeste 18 Noroeste 0 909.7 0.2 58
2020-03-11 06:00:00 6.1 9 Noroeste 20 Noroeste 0 909.3 -0.6 51
2020-03-11 05:00:00 6.7 9 Noroeste 19 Noroeste 0 909.5 -0.7 47
2020-03-11 04:00:00 6.1 6 Noroeste 14 Oeste 0 909.5 -0.8 48
2020-03-11 03:00:00 4.4 2 Sudeste 6 Oeste 0 909.9 -0.6 66
2020-03-11 02:00:00 5.5 3 Noroeste 16 Nordeste 0 910.2 -0.2 59
2020-03-11 01:00:00 5.1 2 Oeste 6 Este 0 910.3 -0.2 65
2020-03-11 00:00:00 6.4 2 Norte 17 Norte 0 910.5 0.3 66